createdAt,value
2018-11-25T00:01:25.726Z,23.63
2018-11-25T00:03:53.949Z,21.33
2018-11-25T00:06:22.135Z,24.07
2018-11-25T00:08:50.333Z,24.27
2018-11-25T00:11:18.622Z,28.70
2018-11-25T00:13:46.846Z,28.63
2018-11-25T00:16:15.102Z,26.17
2018-11-25T00:18:43.334Z,27.47
2018-11-25T00:21:11.509Z,24.33
2018-11-25T00:23:39.705Z,20.10
2018-11-25T00:26:07.888Z,23.77
2018-11-25T00:28:36.069Z,24.10
2018-11-25T00:31:09.430Z,26.80
2018-11-25T00:33:32.482Z,26.67
2018-11-25T00:36:00.677Z,21.13
2018-11-25T00:38:28.902Z,22.80
2018-11-25T00:40:57.106Z,25.07
2018-11-25T00:43:25.315Z,23.53
2018-11-25T00:45:53.577Z,25.03
2018-11-25T00:48:21.781Z,25.57
2018-11-25T00:50:49.989Z,24.23
2018-11-25T00:53:18.414Z,26.80
2018-11-25T00:55:46.621Z,25.20
2018-11-25T00:58:14.843Z,29.07
2018-11-25T01:00:43.034Z,25.60
2018-11-25T01:03:11.246Z,23.70
2018-11-25T01:05:39.438Z,34.97
2018-11-25T01:08:07.673Z,25.07
2018-11-25T01:10:35.844Z,29.17
2018-11-25T01:13:04.056Z,32.87
2018-11-25T01:15:32.208Z,28.00
2018-11-25T01:18:00.358Z,33.90
2018-11-25T01:20:28.553Z,33.23
2018-11-25T01:22:56.712Z,37.73
2018-11-25T01:25:29.423Z,35.37
2018-11-25T01:27:57.780Z,40.90
2018-11-25T01:30:26.465Z,35.00
2018-11-25T01:32:54.661Z,45.50
2018-11-25T01:35:22.916Z,28.30
2018-11-25T01:37:51.325Z,36.73
2018-11-25T01:40:21.161Z,34.13
2018-11-25T01:42:49.389Z,36.33
2018-11-25T01:45:18.056Z,36.93
2018-11-25T01:47:46.250Z,31.43
2018-11-25T01:50:15.411Z,32.10
2018-11-25T01:52:43.641Z,35.53
2018-11-25T01:55:12.864Z,32.77
2018-11-25T01:57:41.026Z,30.73
2018-11-25T02:00:17.002Z,32.33
2018-11-25T02:02:45.225Z,38.10
2018-11-25T02:05:13.433Z,41.27
2018-11-25T02:07:41.585Z,41.27
2018-11-25T02:10:11.986Z,32.63
2018-11-25T02:12:40.164Z,36.13
2018-11-25T02:15:09.607Z,31.90
2018-11-25T02:17:37.814Z,35.40
2018-11-25T02:20:12.535Z,40.00
2018-11-25T02:22:40.734Z,36.03
2018-11-25T02:25:08.917Z,31.77
2018-11-25T02:27:37.128Z,24.80
2018-11-25T02:30:08.842Z,32.10
2018-11-25T02:32:37.021Z,26.20
2018-11-25T02:35:06.609Z,25.10
2018-11-25T02:37:34.776Z,27.40
2018-11-25T02:40:02.996Z,30.67
2018-11-25T02:42:31.189Z,30.47
2018-11-25T02:44:59.389Z,30.17
2018-11-25T02:47:27.586Z,31.77
2018-11-25T02:49:55.748Z,31.73
2018-11-25T02:52:23.981Z,32.47
2018-11-25T02:54:52.201Z,30.47
2018-11-25T02:57:23.480Z,39.80
2018-11-25T02:59:52.661Z,28.87
2018-11-25T03:02:20.910Z,31.30
2018-11-25T03:04:49.101Z,30.40
2018-11-25T03:07:17.288Z,31.90
2018-11-25T03:09:45.441Z,44.57
2018-11-25T03:12:13.607Z,27.37
2018-11-25T03:14:41.797Z,37.57
2018-11-25T03:17:09.961Z,32.00
2018-11-25T03:19:38.153Z,32.50
2018-11-25T03:22:06.289Z,39.83
2018-11-25T03:24:34.443Z,35.80
2018-11-25T03:27:02.644Z,38.40
2018-11-25T03:29:30.791Z,37.20
2018-11-25T03:31:58.978Z,33.27
2018-11-25T03:34:27.135Z,31.70
2018-11-25T03:36:55.269Z,31.93
2018-11-25T03:39:23.554Z,40.57
2018-11-25T03:41:51.694Z,30.13
2018-11-25T03:44:19.890Z,30.47
2018-11-25T03:46:48.047Z,43.50
2018-11-25T03:49:16.196Z,34.37
2018-11-25T03:51:44.380Z,30.33
2018-11-25T03:54:12.564Z,35.37
2018-11-25T03:56:40.742Z,31.80
2018-11-25T03:59:08.961Z,34.20
2018-11-25T04:01:37.129Z,27.60
2018-11-25T04:04:06.570Z,33.40
2018-11-25T04:06:34.738Z,33.47
2018-11-25T04:09:03.002Z,32.53
2018-11-25T04:11:31.210Z,32.70
2018-11-25T04:13:59.357Z,30.57
2018-11-25T04:16:27.496Z,30.13
2018-11-25T04:18:55.670Z,32.43
2018-11-25T04:21:23.829Z,30.17
2018-11-25T04:23:52.068Z,23.40
2018-11-25T04:26:20.368Z,33.30
2018-11-25T04:28:48.505Z,26.63
2018-11-25T04:31:16.704Z,40.00
2018-11-25T04:33:44.857Z,31.73
2018-11-25T04:36:13.033Z,32.17
2018-11-25T04:38:41.210Z,32.67
2018-11-25T04:41:09.407Z,29.43
2018-11-25T04:43:37.587Z,31.20
2018-11-25T04:46:06.533Z,40.13
2018-11-25T04:48:34.686Z,32.53
2018-11-25T04:51:02.888Z,31.50
2018-11-25T04:53:31.058Z,38.00
2018-11-25T04:55:59.341Z,37.47
2018-11-25T04:58:27.493Z,31.47
2018-11-25T05:00:55.655Z,37.00
2018-11-25T05:03:23.797Z,30.17
2018-11-25T05:05:51.960Z,35.97
2018-11-25T05:08:20.562Z,34.63
2018-11-25T05:10:49.284Z,45.07
2018-11-25T05:13:17.577Z,42.37
2018-11-25T05:15:46.226Z,37.90
2018-11-25T05:18:14.474Z,39.27
2018-11-25T05:20:43.049Z,40.60
2018-11-25T05:23:18.063Z,42.77
2018-11-25T05:25:46.322Z,38.43
2018-11-25T05:28:14.712Z,44.60
2018-11-25T05:30:43.042Z,49.23
2018-11-25T05:33:11.327Z,51.40
2018-11-25T05:35:39.594Z,47.63
2018-11-25T05:38:08.370Z,54.03
2018-11-25T05:40:36.954Z,39.80
2018-11-25T05:43:05.573Z,45.93
2018-11-25T05:45:33.851Z,52.10
2018-11-25T05:48:02.139Z,49.53
2018-11-25T05:50:30.395Z,45.10
2018-11-25T05:52:58.674Z,50.70
2018-11-25T05:55:26.930Z,48.90
2018-11-25T05:57:55.639Z,51.17
2018-11-25T06:00:31.554Z,50.47
2018-11-25T06:03:00.116Z,45.03
2018-11-25T06:05:28.711Z,45.07
2018-11-25T06:07:57.110Z,47.57
2018-11-25T06:10:25.402Z,48.73
2018-11-25T06:12:53.897Z,52.80
2018-11-25T06:15:22.214Z,54.07
2018-11-25T06:17:50.490Z,51.23
2018-11-25T06:20:18.774Z,45.70
2018-11-25T06:22:47.278Z,49.93
2018-11-25T06:25:17.692Z,38.90
2018-11-25T06:27:46.278Z,45.77
2018-11-25T06:30:16.020Z,49.30
2018-11-25T06:32:44.294Z,56.83
2018-11-25T06:35:15.721Z,52.87
2018-11-25T06:37:44.030Z,57.47
2018-11-25T06:40:20.595Z,58.63
2018-11-25T06:42:49.058Z,69.27
2018-11-25T06:45:24.807Z,73.47
2018-11-25T06:47:53.985Z,68.83
2018-11-25T06:50:22.314Z,57.40
2018-11-25T06:52:50.622Z,72.07
2018-11-25T06:55:19.251Z,79.77
2018-11-25T06:57:47.532Z,69.63
2018-11-25T07:00:17.944Z,66.43
2018-11-25T07:02:46.641Z,69.70
2018-11-25T07:05:15.098Z,64.73
2018-11-25T07:07:43.422Z,71.67
2018-11-25T07:10:15.536Z,72.05
2018-11-25T07:12:43.898Z,70.57
2018-11-25T07:15:13.841Z,69.47
2018-11-25T07:17:42.154Z,72.07
2018-11-25T07:20:11.623Z,79.07
2018-11-25T07:22:39.879Z,74.70
2018-11-25T07:25:10.374Z,77.03
2018-11-25T07:27:39.378Z,62.90
2018-11-25T07:30:18.678Z,73.30
2018-11-25T07:32:46.966Z,76.13
2018-11-25T07:35:15.301Z,61.47
2018-11-25T07:37:43.570Z,72.33
2018-11-25T07:40:13.019Z,67.63
2018-11-25T07:42:41.416Z,67.37
2018-11-25T07:45:11.990Z,62.40
2018-11-25T07:47:40.713Z,65.50
2018-11-25T07:50:11.346Z,55.93
2018-11-25T07:52:40.051Z,67.60
2018-11-25T07:55:25.192Z,54.37
2018-11-25T07:57:54.783Z,70.97
2018-11-25T08:00:24.071Z,56.40
2018-11-25T08:02:53.154Z,62.53
2018-11-25T08:05:23.531Z,63.47
2018-11-25T08:07:52.142Z,63.57
2018-11-25T08:10:20.486Z,78.80
2018-11-25T08:12:49.010Z,67.23
2018-11-25T08:15:19.023Z,57.23
2018-11-25T08:17:47.627Z,56.23
2018-11-25T08:20:17.046Z,59.10
2018-11-25T08:22:45.337Z,59.13
2018-11-25T08:25:15.120Z,69.97
2018-11-25T08:27:43.736Z,73.17
2018-11-25T08:30:19.556Z,63.13
2018-11-25T08:32:48.237Z,63.80
2018-11-25T08:35:16.923Z,71.00
2018-11-25T08:37:45.531Z,67.97
2018-11-25T08:40:15.566Z,72.73
2018-11-25T08:42:44.137Z,76.43
2018-11-25T08:45:13.310Z,73.40
2018-11-25T08:47:41.621Z,72.60
2018-11-25T08:50:11.798Z,66.27
2018-11-25T08:52:40.464Z,92.47
2018-11-25T08:55:11.777Z,71.70
2018-11-25T08:57:40.216Z,73.03
2018-11-25T09:00:11.960Z,70.43
2018-11-25T09:02:40.271Z,77.93
2018-11-25T09:05:10.301Z,81.27
2018-11-25T09:07:38.666Z,77.00
2018-11-25T09:10:09.712Z,81.77
2018-11-25T09:12:38.041Z,87.77
2018-11-25T09:15:09.534Z,71.80
2018-11-25T09:17:38.458Z,70.70
2018-11-25T09:20:09.575Z,76.40
2018-11-25T09:22:38.658Z,80.03
2018-11-25T09:25:09.287Z,84.53
2018-11-25T09:27:39.061Z,64.57
2018-11-25T09:30:12.590Z,74.03
2018-11-25T09:32:41.080Z,82.57
2018-11-25T09:35:09.855Z,68.57
2018-11-25T09:37:38.110Z,86.30
2018-11-25T09:40:16.705Z,71.40
2018-11-25T09:42:44.987Z,62.57
2018-11-25T09:45:14.447Z,66.00
2018-11-25T09:47:42.910Z,64.87
2018-11-25T09:50:12.122Z,69.27
2018-11-25T09:52:40.440Z,65.90
2018-11-25T09:55:10.950Z,65.23
2018-11-25T09:57:39.323Z,63.73
2018-11-25T10:00:15.626Z,65.30
2018-11-25T10:02:44.448Z,69.87
2018-11-25T10:05:12.959Z,62.57
2018-11-25T10:07:41.234Z,68.03
2018-11-25T10:10:11.170Z,71.23
2018-11-25T10:12:39.934Z,65.00
2018-11-25T10:15:10.234Z,74.30
2018-11-25T10:17:38.507Z,59.20
2018-11-25T10:20:10.675Z,64.97
2018-11-25T10:22:38.918Z,59.97
2018-11-25T10:25:09.002Z,59.40
2018-11-25T10:27:37.737Z,63.10
2018-11-25T10:30:16.255Z,71.83
2018-11-25T10:32:45.069Z,68.27
2018-11-25T10:35:13.328Z,77.57
2018-11-25T10:37:42.015Z,76.43
2018-11-25T10:40:12.263Z,84.80
2018-11-25T10:42:40.539Z,72.90
2018-11-25T10:45:10.610Z,82.70
2018-11-25T10:47:39.016Z,77.97
2018-11-25T10:50:09.987Z,63.37
2018-11-25T10:52:38.551Z,85.50
2018-11-25T10:55:08.750Z,101.47
2018-11-25T10:57:37.520Z,101.13
2018-11-25T11:00:23.633Z,81.23
2018-11-25T11:02:57.470Z,98.10
2018-11-25T11:05:31.480Z,89.40
2018-11-25T11:07:59.822Z,76.77
2018-11-25T11:10:28.479Z,93.90
2018-11-25T11:12:57.036Z,107.53
2018-11-25T11:15:26.919Z,93.67
2018-11-25T11:17:55.589Z,105.87
2018-11-25T11:20:23.902Z,102.23
2018-11-25T11:22:52.185Z,97.17
2018-11-25T11:25:20.598Z,92.87
2018-11-25T11:27:48.891Z,120.27
2018-11-25T11:30:17.222Z,109.60
2018-11-25T11:32:45.878Z,99.60
2018-11-25T11:35:14.284Z,111.67
2018-11-25T11:37:42.657Z,110.20
2018-11-25T11:40:12.062Z,110.07
2018-11-25T11:42:40.372Z,116.37
2018-11-25T11:45:13.460Z,97.53
2018-11-25T11:47:42.322Z,104.50
2018-11-25T11:50:13.037Z,84.07
2018-11-25T11:52:41.762Z,95.43
2018-11-25T11:55:12.116Z,110.40
2018-11-25T11:57:41.544Z,113.83
2018-11-25T12:00:21.640Z,103.90
2018-11-25T12:02:50.627Z,107.07
2018-11-25T12:05:18.970Z,119.47
2018-11-25T12:07:47.334Z,105.20
2018-11-25T12:10:16.811Z,116.17
2018-11-25T12:12:45.092Z,109.43
2018-11-25T12:15:15.067Z,112.60
2018-11-25T12:17:43.630Z,105.57
2018-11-25T12:20:12.102Z,109.73
2018-11-25T12:22:40.576Z,129.10
2018-11-25T12:25:11.893Z,108.23
2018-11-25T12:27:40.197Z,114.10
2018-11-25T12:30:10.401Z,110.90
2018-11-25T12:32:39.378Z,107.37
2018-11-25T12:35:09.270Z,114.77
2018-11-25T12:37:37.827Z,102.40
2018-11-25T12:40:08.887Z,96.63
2018-11-25T12:42:37.208Z,104.33
2018-11-25T12:45:07.442Z,97.50
2018-11-25T12:47:35.766Z,106.27
2018-11-25T12:50:04.026Z,90.90
2018-11-25T12:52:32.311Z,89.23
2018-11-25T12:55:03.841Z,123.93
2018-11-25T12:57:33.060Z,93.43
2018-11-25T13:00:01.428Z,117.10
2018-11-25T13:02:30.454Z,112.63
2018-11-25T13:04:59.589Z,111.33
2018-11-25T13:07:27.878Z,99.20
2018-11-25T13:09:57.010Z,103.63
2018-11-25T13:12:25.306Z,96.30
2018-11-25T13:14:53.660Z,85.73
2018-11-25T13:17:22.585Z,96.47
2018-11-25T13:19:51.320Z,84.63
2018-11-25T13:22:19.693Z,95.83
2018-11-25T13:24:47.981Z,101.13
2018-11-25T13:27:16.314Z,98.27
2018-11-25T13:29:45.015Z,107.00
2018-11-25T13:32:13.575Z,119.20
2018-11-25T13:34:42.734Z,103.60
2018-11-25T13:37:11.090Z,92.93
2018-11-25T13:39:39.387Z,117.13
2018-11-25T13:42:07.813Z,104.17
2018-11-25T13:44:50.169Z,109.70
2018-11-25T13:47:18.442Z,109.97
2018-11-25T13:49:46.730Z,93.57
2018-11-25T13:52:15.944Z,100.00
2018-11-25T13:54:44.688Z,98.00
2018-11-25T13:57:12.943Z,104.33
2018-11-25T13:59:41.479Z,90.07
2018-11-25T14:02:10.255Z,110.30
2018-11-25T14:04:38.521Z,117.90
2018-11-25T14:07:07.577Z,114.17
2018-11-25T14:09:36.508Z,112.60
2018-11-25T14:12:05.002Z,115.60
2018-11-25T14:14:34.077Z,112.90
2018-11-25T14:17:03.478Z,105.53
2018-11-25T14:19:31.794Z,114.80
2018-11-25T14:22:00.120Z,102.90
2018-11-25T14:24:28.472Z,96.87
2018-11-25T14:27:00.046Z,101.27
2018-11-25T14:29:28.743Z,110.07
2018-11-25T14:31:57.159Z,95.40
2018-11-25T14:34:26.711Z,117.40
2018-11-25T14:36:54.999Z,101.70
2018-11-25T14:39:23.315Z,118.40
2018-11-25T14:41:51.631Z,106.70
2018-11-25T14:44:20.094Z,102.10
2018-11-25T14:46:48.470Z,95.07
2018-11-25T14:49:17.298Z,84.63
2018-11-25T14:51:45.595Z,87.10
2018-11-25T14:54:14.421Z,106.77
2018-11-25T14:56:43.080Z,82.67
2018-11-25T14:59:11.370Z,100.03
2018-11-25T15:01:40.144Z,87.30
2018-11-25T15:04:08.462Z,83.63
2018-11-25T15:06:37.111Z,66.50
2018-11-25T15:09:08.823Z,87.23
2018-11-25T15:11:37.530Z,69.73
2018-11-25T15:14:07.814Z,72.70
2018-11-25T15:16:36.519Z,79.83
2018-11-25T15:19:05.371Z,82.03
2018-11-25T15:21:33.728Z,84.50
2018-11-25T15:24:01.991Z,70.23
2018-11-25T15:26:30.399Z,80.37
2018-11-25T15:28:59.138Z,67.77
2018-11-25T15:31:27.445Z,66.63
2018-11-25T15:33:56.074Z,72.17
2018-11-25T15:36:24.722Z,58.40
2018-11-25T15:38:53.124Z,66.13
2018-11-25T15:41:21.509Z,64.40
2018-11-25T15:43:50.177Z,72.97
2018-11-25T15:46:18.580Z,58.93
2018-11-25T15:48:46.876Z,70.03
2018-11-25T15:51:15.149Z,68.60
2018-11-25T15:53:43.601Z,57.00
2018-11-25T15:56:12.245Z,73.00
2018-11-25T15:58:40.532Z,68.33
2018-11-25T16:01:09.024Z,70.23
2018-11-25T16:03:37.310Z,57.60
2018-11-25T16:06:26.695Z,81.70
2018-11-25T16:08:55.028Z,65.17
2018-11-25T16:11:23.276Z,59.13
2018-11-25T16:13:51.610Z,64.23
2018-11-25T16:16:20.719Z,58.97
2018-11-25T16:18:49.344Z,64.07
2018-11-25T16:21:17.609Z,58.20
2018-11-25T16:23:45.978Z,57.87
2018-11-25T16:26:17.585Z,71.13
2018-11-25T16:28:47.494Z,66.03
2018-11-25T16:31:15.883Z,55.07
2018-11-25T16:33:44.157Z,62.93
2018-11-25T16:36:12.536Z,61.27
2018-11-25T16:38:40.831Z,48.93
2018-11-25T16:41:09.511Z,69.13
2018-11-25T16:43:37.847Z,59.80
2018-11-25T16:46:06.142Z,55.30
2018-11-25T16:48:34.786Z,55.30
2018-11-25T16:51:03.180Z,56.97
2018-11-25T16:53:31.517Z,52.20
2018-11-25T16:56:00.058Z,62.20
2018-11-25T16:58:28.319Z,66.37
2018-11-25T17:00:56.611Z,54.30
2018-11-25T17:03:24.980Z,52.23
2018-11-25T17:05:53.505Z,56.63
2018-11-25T17:08:38.719Z,51.23
2018-11-25T17:11:07.662Z,55.63
2018-11-25T17:13:36.014Z,52.50
2018-11-25T17:16:04.583Z,56.13
2018-11-25T17:18:32.818Z,57.20
2018-11-25T17:21:01.129Z,45.00
2018-11-25T17:23:29.463Z,47.17
2018-11-25T17:25:58.870Z,42.63
2018-11-25T17:28:27.164Z,48.43
2018-11-25T17:30:55.676Z,44.43
2018-11-25T17:33:24.062Z,34.60
2018-11-25T17:35:52.990Z,53.43
2018-11-25T17:38:21.658Z,43.97
2018-11-25T17:40:49.933Z,44.27
2018-11-25T17:43:20.117Z,43.20
2018-11-25T17:45:48.963Z,40.97
2018-11-25T17:48:17.234Z,46.93
2018-11-25T17:50:45.552Z,42.77
2018-11-25T17:53:20.441Z,43.83
2018-11-25T17:55:42.328Z,43.63
2018-11-25T17:58:10.678Z,28.27
2018-11-25T18:00:42.977Z,34.13
2018-11-25T18:03:14.102Z,34.23
2018-11-25T18:05:42.505Z,35.50
2018-11-25T18:08:10.786Z,34.93
2018-11-25T18:10:39.854Z,33.57
2018-11-25T18:13:08.558Z,31.73
2018-11-25T18:15:37.286Z,32.30
2018-11-25T18:18:09.487Z,32.17
2018-11-25T18:20:42.456Z,29.07
2018-11-25T18:23:11.055Z,29.90
2018-11-25T18:25:39.403Z,29.30
2018-11-25T18:28:07.680Z,28.07
2018-11-25T18:30:36.026Z,38.40
2018-11-25T18:33:04.454Z,36.30
2018-11-25T18:35:32.907Z,35.20
2018-11-25T18:38:02.496Z,31.53
2018-11-25T18:40:30.751Z,30.60
2018-11-25T18:42:59.055Z,30.20
2018-11-25T18:45:27.671Z,35.13
2018-11-25T18:47:56.165Z,28.00
2018-11-25T18:50:24.746Z,36.30
2018-11-25T18:52:53.978Z,39.87
2018-11-25T18:55:21.224Z,37.53
2018-11-25T18:57:50.054Z,34.83
2018-11-25T19:00:33.226Z,34.93
2018-11-25T19:03:01.755Z,28.53
2018-11-25T19:05:30.403Z,30.23
2018-11-25T19:07:58.654Z,33.10
2018-11-25T19:10:27.280Z,28.20
2018-11-25T19:12:55.778Z,37.40
2018-11-25T19:15:24.091Z,28.83
2018-11-25T19:17:52.423Z,30.57
2018-11-25T19:20:31.739Z,32.43
2018-11-25T19:23:00.581Z,31.33
2018-11-25T19:25:29.174Z,31.70
2018-11-25T19:27:57.778Z,27.87
2018-11-25T19:30:27.147Z,36.17
2018-11-25T19:32:54.954Z,26.40
2018-11-25T19:35:24.375Z,27.67
2018-11-25T19:37:53.232Z,29.03
2018-11-25T19:40:23.727Z,29.87
2018-11-25T19:42:52.415Z,35.57
2018-11-25T19:45:22.027Z,32.43
2018-11-25T19:47:50.726Z,28.87
2018-11-25T19:50:21.699Z,35.77
2018-11-25T19:52:49.994Z,31.73
2018-11-25T19:55:18.283Z,31.37
2018-11-25T19:57:46.629Z,34.73
2018-11-25T20:00:18.191Z,46.83
2018-11-25T20:02:49.282Z,30.27
2018-11-25T20:05:17.243Z,30.40
2018-11-25T20:07:45.703Z,30.40
2018-11-25T20:10:16.134Z,29.40
2018-11-25T20:12:45.707Z,27.63
2018-11-25T20:15:16.080Z,32.90
2018-11-25T20:17:53.684Z,29.27
2018-11-25T20:20:14.313Z,29.70
2018-11-25T20:22:42.635Z,29.87
2018-11-25T20:25:11.756Z,30.20
2018-11-25T20:27:42.134Z,31.30
2018-11-25T20:30:12.730Z,28.43
2018-11-25T20:32:46.213Z,29.57
2018-11-25T20:35:14.532Z,26.80
2018-11-25T20:37:48.207Z,26.10
2018-11-25T20:40:16.565Z,26.37
2018-11-25T20:42:45.261Z,30.67
2018-11-25T20:45:20.122Z,30.10
2018-11-25T20:47:48.754Z,26.63
2018-11-25T20:50:17.035Z,29.10
2018-11-25T20:52:50.624Z,24.80
2018-11-25T20:55:18.883Z,25.70
2018-11-25T20:57:47.139Z,22.87
2018-11-25T21:00:17.820Z,30.47
2018-11-25T21:02:46.107Z,25.97
2018-11-25T21:05:14.987Z,27.13
2018-11-25T21:07:43.653Z,28.97
2018-11-25T21:10:13.672Z,25.60
2018-11-25T21:12:43.170Z,33.47
2018-11-25T21:15:11.711Z,30.30
2018-11-25T21:17:40.241Z,24.07
2018-11-25T21:20:15.008Z,27.30
2018-11-25T21:22:43.358Z,29.57
2018-11-25T21:25:14.522Z,30.00
2018-11-25T21:27:43.167Z,28.03
2018-11-25T21:30:13.854Z,27.07
2018-11-25T21:32:42.348Z,27.47
2018-11-25T21:35:11.539Z,29.77
2018-11-25T21:37:40.301Z,27.43
2018-11-25T21:40:13.409Z,26.60
2018-11-25T21:42:41.714Z,31.93
2018-11-25T21:45:11.294Z,26.30
2018-11-25T21:47:39.548Z,29.00
2018-11-25T21:50:13.353Z,27.90
2018-11-25T21:52:42.058Z,28.80
2018-11-25T21:55:13.406Z,27.53
2018-11-25T21:57:41.771Z,25.27
2018-11-25T22:00:13.324Z,23.57
2018-11-25T22:02:41.638Z,33.37
2018-11-25T22:05:11.009Z,27.17
2018-11-25T22:07:39.291Z,33.23
2018-11-25T22:10:10.012Z,32.80
2018-11-25T22:12:39.050Z,29.20
2018-11-25T22:15:09.671Z,23.33
2018-11-25T22:17:38.024Z,29.27
2018-11-25T22:20:08.337Z,33.73
2018-11-25T22:22:36.929Z,35.23
2018-11-25T22:25:07.816Z,35.73
2018-11-25T22:27:36.105Z,35.80
2018-11-25T22:30:06.349Z,35.53
2018-11-25T22:32:34.638Z,35.30
2018-11-25T22:35:03.246Z,39.43
2018-11-25T22:37:31.754Z,35.60
2018-11-25T22:40:00.022Z,35.57
2018-11-25T22:42:28.290Z,33.30
2018-11-25T22:44:56.592Z,36.00
2018-11-25T22:47:24.868Z,29.17
2018-11-25T22:49:53.734Z,29.33
2018-11-25T22:52:22.046Z,25.83
2018-11-25T22:54:50.315Z,24.97
2018-11-25T22:57:18.569Z,23.30
2018-11-25T22:59:46.888Z,22.40
2018-11-25T23:02:15.183Z,28.30
2018-11-25T23:04:54.611Z,26.47
2018-11-25T23:07:22.911Z,29.80
2018-11-25T23:09:51.536Z,25.47
2018-11-25T23:12:19.797Z,27.97
2018-11-25T23:14:48.095Z,27.60
2018-11-25T23:17:16.349Z,29.33
2018-11-25T23:19:44.613Z,28.17
2018-11-25T23:22:13.261Z,30.57
2018-11-25T23:24:41.969Z,31.83
2018-11-25T23:27:10.299Z,32.50
2018-11-25T23:29:38.623Z,31.50
2018-11-25T23:32:06.957Z,34.17
2018-11-25T23:34:35.274Z,27.80
2018-11-25T23:37:03.549Z,29.60
2018-11-25T23:39:31.836Z,34.87
2018-11-25T23:42:00.516Z,29.00
2018-11-25T23:44:29.237Z,28.23
2018-11-25T23:46:57.576Z,32.13
2018-11-25T23:49:25.894Z,27.43
2018-11-25T23:51:54.167Z,31.30
2018-11-25T23:54:22.657Z,30.50
2018-11-25T23:56:50.926Z,25.83
2018-11-25T23:59:19.681Z,27.53
